Time;durP1;ratioP1;P1;durP2;ratioP2;P2;SDS_P1;SDS_P2;PMS_P1;PMS_P2;Temp;Humidity;BMP_temperature;BMP_pressure;BME280_temperature;BME280_humidity;BME280_pressure;Samples;Min_cycle;Max_cycle;Signal;HPM_P1;HPM_P2
2022/08/25 00:01:45;;;;;;;0.43;0.43;;;19.40;43.90;;;;;;5100935;28;20024;-73
2022/08/25 00:04:13;;;;;;;0.73;0.73;;;19.60;43.60;;;;;;5111438;27;20023;-72
2022/08/25 00:06:41;;;;;;;0.65;0.65;;;19.80;42.90;;;;;;5095312;28;20413;-74
2022/08/25 00:09:10;;;;;;;0.10;0.10;;;19.80;42.70;;;;;;5101232;28;20102;-72
2022/08/25 00:11:38;;;;;;;0.00;0.00;;;19.80;43.10;;;;;;5102312;27;20023;-73
2022/08/25 00:14:09;;;;;;;0.00;0.00;;;19.70;44.50;;;;;;5102224;28;20106;-72
2022/08/25 00:16:35;;;;;;;0.03;0.03;;;19.80;43.60;;;;;;5099695;28;20016;-72
2022/08/25 00:19:09;;;;;;;0.00;0.00;;;19.80;43.80;;;;;;5106424;28;20027;-73
2022/08/25 00:21:35;;;;;;;2.30;1.35;;;19.80;43.10;;;;;;5102797;28;20034;-72
2022/08/25 00:24:03;;;;;;;0.00;0.00;;;19.80;42.90;;;;;;5100656;28;20478;-73
2022/08/25 00:26:29;;;;;;;0.00;0.00;;;19.80;43.00;;;;;;5099524;28;20064;-72
2022/08/25 00:28:56;;;;;;;0.00;0.00;;;19.70;43.30;;;;;;5110579;28;20028;-73
2022/08/25 00:31:23;;;;;;;0.43;0.43;;;19.70;43.10;;;;;;5097911;28;20034;-73
2022/08/25 00:33:51;;;;;;;0.00;0.00;;;19.70;43.00;;;;;;5096441;28;20032;-73
2022/08/25 00:36:18;;;;;;;9.30;5.40;;;19.60;42.80;;;;;;5100746;28;20466;-72
2022/08/25 00:38:47;;;;;;;0.00;0.00;;;19.30;43.50;;;;;;5101576;28;20024;-73
2022/08/25 00:41:19;;;;;;;0.00;0.00;;;19.30;43.70;;;;;;5099357;28;20016;-73
2022/08/25 00:44:12;;;;;;;0.00;0.00;;;19.40;43.40;;;;;;5101047;28;20362;-73
2022/08/25 00:46:43;;;;;;;1.75;0.45;;;19.30;43.30;;;;;;5101638;28;20063;-73
2022/08/25 00:49:14;;;;;;;0.17;0.17;;;19.40;43.50;;;;;;5104238;28;20040;-73
2022/08/25 00:51:58;;;;;;;0.00;0.00;;;19.40;43.60;;;;;;5100982;28;20032;-73
2022/08/25 00:54:29;;;;;;;0.15;0.15;;;19.20;43.70;;;;;;5101434;28;20024;-73
2022/08/25 00:56:58;;;;;;;0.00;0.00;;;19.00;44.30;;;;;;5102276;28;20058;-72
2022/08/25 00:59:25;;;;;;;0.00;0.00;;;18.90;45.00;;;;;;5098908;28;20124;-72
2022/08/25 01:01:52;;;;;;;0.00;0.00;;;18.90;45.00;;;;;;5100796;28;20040;-73
2022/08/25 01:04:19;;;;;;;0.88;0.88;;;18.90;45.00;;;;;;5100541;28;20442;-72
2022/08/25 01:06:47;;;;;;;0.00;0.00;;;19.00;45.10;;;;;;5102043;28;20024;-73
2022/08/25 01:09:15;;;;;;;0.00;0.00;;;18.80;46.20;;;;;;5095000;28;20024;-75
2022/08/25 01:11:43;;;;;;;0.00;0.00;;;18.90;45.40;;;;;;5101134;28;20031;-74
2022/08/25 01:14:12;;;;;;;0.00;0.00;;;18.90;45.00;;;;;;5100680;28;20028;-74
2022/08/25 01:16:38;;;;;;;0.00;0.00;;;18.80;45.40;;;;;;5098508;28;20024;-74
2022/08/25 01:19:06;;;;;;;0.00;0.00;;;18.70;45.60;;;;;;5103495;28;20024;-74
2022/08/25 01:21:40;;;;;;;0.25;0.25;;;18.70;45.50;;;;;;5097190;28;20027;-74
2022/08/25 01:24:08;;;;;;;0.00;0.00;;;18.60;45.60;;;;;;5102019;28;20034;-74
2022/08/25 01:26:35;;;;;;;0.00;0.00;;;18.80;46.10;;;;;;5098578;28;20027;-74
2022/08/25 01:29:24;;;;;;;0.00;0.00;;;18.80;45.10;;;;;;5095303;28;20039;-75
2022/08/25 01:31:59;;;;;;;0.43;0.43;;;18.90;44.40;;;;;;5098799;28;20073;-75
2022/08/25 01:34:28;;;;;;;0.00;0.00;;;19.00;44.60;;;;;;5101032;28;20020;-74
2022/08/25 01:36:56;;;;;;;0.00;0.00;;;19.00;45.70;;;;;;5100381;28;20040;-74
2022/08/25 01:39:23;;;;;;;0.00;0.00;;;19.00;44.70;;;;;;5099426;28;20042;-73
2022/08/25 01:42:17;;;;;;;0.35;0.35;;;18.90;45.50;;;;;;5099844;28;20040;-74
2022/08/25 01:44:45;;;;;;;0.00;0.00;;;18.90;46.40;;;;;;5102665;28;20032;-76
2022/08/25 01:47:12;;;;;;;0.00;0.00;;;19.10;45.00;;;;;;5101462;28;20047;-75
2022/08/25 01:49:39;;;;;;;0.00;0.00;;;19.30;44.90;;;;;;5098912;28;20020;-75
2022/08/25 01:52:30;;;;;;;0.20;0.20;;;19.40;44.10;;;;;;5098547;28;20389;-74
2022/08/25 01:54:57;;;;;;;0.10;0.10;;;19.60;44.40;;;;;;5101009;28;20052;-75
2022/08/25 01:57:23;;;;;;;0.00;0.00;;;19.60;44.40;;;;;;5101289;28;20035;-73
2022/08/25 01:59:49;;;;;;;0.00;0.00;;;19.80;44.40;;;;;;5097721;28;20498;-75
2022/08/25 02:02:15;;;;;;;0.13;0.10;;;19.70;44.40;;;;;;5100970;28;20058;-75
2022/08/25 02:04:41;;;;;;;0.00;0.00;;;19.90;44.00;;;;;;5097442;28;20035;-74
2022/08/25 02:07:08;;;;;;;0.00;0.00;;;20.30;43.50;;;;;;5100801;28;20036;-75
2022/08/25 02:09:36;;;;;;;0.00;0.00;;;20.70;42.40;;;;;;5097382;28;20032;-75
2022/08/25 02:12:02;;;;;;;0.08;0.08;;;21.00;42.00;;;;;;5095560;28;20023;-74
2022/08/25 02:14:29;;;;;;;0.00;0.00;;;21.00;42.10;;;;;;5095434;28;20098;-75
2022/08/25 02:16:56;;;;;;;1.48;1.48;;;21.10;41.80;;;;;;5098070;28;20051;-74
2022/08/25 02:19:24;;;;;;;0.00;0.00;;;21.20;41.80;;;;;;5098615;28;20034;-74
2022/08/25 02:21:51;;;;;;;0.00;0.00;;;21.20;41.70;;;;;;5095248;28;20052;-74
2022/08/25 02:24:17;;;;;;;0.00;0.00;;;21.30;41.50;;;;;;5098375;28;20107;-74
2022/08/25 02:26:43;;;;;;;0.00;0.00;;;21.40;41.40;;;;;;5101664;28;20050;-73
2022/08/25 02:29:10;;;;;;;0.00;0.00;;;21.40;41.00;;;;;;5103979;28;20518;-73
2022/08/25 02:31:36;;;;;;;0.00;0.00;;;21.50;41.20;;;;;;5098849;28;20035;-73
2022/08/25 02:34:04;;;;;;;0.00;0.00;;;22.00;40.90;;;;;;5106749;28;20099;-73
2022/08/25 02:36:31;;;;;;;0.00;0.00;;;22.60;39.70;;;;;;5109072;28;20015;-73
2022/08/25 02:38:57;;;;;;;0.00;0.00;;;23.50;38.30;;;;;;5100994;28;20027;-75
2022/08/25 02:41:25;;;;;;;1.45;1.27;;;24.20;37.00;;;;;;5101048;28;20012;-76
2022/08/25 02:43:52;;;;;;;0.00;0.00;;;24.90;35.90;;;;;;5106462;28;20111;-75
2022/08/25 02:46:20;;;;;;;0.00;0.00;;;25.60;35.00;;;;;;5102438;28;20486;-76
2022/08/25 02:48:47;;;;;;;0.00;0.00;;;26.00;34.00;;;;;;5099093;28;20024;-74
2022/08/25 02:51:14;;;;;;;0.00;0.00;;;26.40;33.70;;;;;;5099913;28;20409;-74
2022/08/25 02:53:41;;;;;;;0.20;0.20;;;26.40;33.90;;;;;;5098940;28;20039;-74
2022/08/25 02:56:09;;;;;;;0.00;0.00;;;26.30;33.10;;;;;;5103999;28;20138;-74
2022/08/25 02:58:36;;;;;;;0.00;0.00;;;26.70;33.20;;;;;;5105604;27;20015;-75
2022/08/25 03:01:06;;;;;;;0.00;0.00;;;26.60;33.00;;;;;;5099557;28;20068;-74
2022/08/25 03:03:33;;;;;;;4.28;2.80;;;26.40;33.40;;;;;;5101080;28;20474;-76
2022/08/25 03:06:00;;;;;;;0.00;0.00;;;26.00;33.30;;;;;;5094090;28;20077;-75
2022/08/25 03:08:26;;;;;;;19.42;6.78;;;25.60;33.70;;;;;;5096300;28;20112;-74
2022/08/25 03:10:52;;;;;;;0.25;0.25;;;25.30;34.40;;;;;;5098351;28;20081;-74
2022/08/25 03:13:19;;;;;;;0.00;0.00;;;24.80;35.10;;;;;;5096472;27;20061;-73
2022/08/25 03:15:45;;;;;;;0.43;0.43;;;24.60;35.90;;;;;;5091202;28;20097;-73
2022/08/25 03:18:11;;;;;;;0.05;0.05;;;24.20;35.70;;;;;;5097853;28;20024;-74
2022/08/25 03:20:38;;;;;;;0.00;0.00;;;23.70;37.00;;;;;;5095389;28;20031;-74
2022/08/25 03:23:05;;;;;;;0.05;0.05;;;23.60;37.40;;;;;;5093231;28;20024;-75
2022/08/25 03:28:19;;;;;;;0.45;0.45;;;23.40;38.40;;;;;;5092124;27;20509;-74
2022/08/25 03:30:45;;;;;;;0.00;0.00;;;23.50;38.60;;;;;;5089032;28;20070;-73
2022/08/25 03:33:12;;;;;;;0.00;0.00;;;23.40;39.00;;;;;;5093977;28;20020;-74
2022/08/25 03:35:38;;;;;;;0.00;0.00;;;23.20;39.20;;;;;;5098491;28;20054;-74
2022/08/25 03:38:04;;;;;;;0.80;0.80;;;23.30;39.10;;;;;;5099018;28;20099;-74
2022/08/25 03:40:31;;;;;;;0.00;0.00;;;22.60;40.50;;;;;;5092049;28;20078;-75
2022/08/25 03:42:57;;;;;;;0.00;0.00;;;22.50;41.00;;;;;;5094458;28;20027;-73
2022/08/25 03:45:24;;;;;;;0.00;0.00;;;22.60;40.80;;;;;;5092337;28;20509;-76
2022/08/25 03:47:51;;;;;;;0.08;0.08;;;22.70;40.80;;;;;;5095073;28;20073;-76
2022/08/25 03:50:19;;;;;;;0.00;0.00;;;22.80;40.60;;;;;;5091864;28;20035;-77
2022/08/25 03:52:51;;;;;;;0.00;0.00;;;22.80;41.00;;;;;;5094465;28;20016;-76
2022/08/25 03:55:17;;;;;;;0.15;0.15;;;22.80;41.10;;;;;;5093689;28;20115;-76
2022/08/25 03:57:43;;;;;;;0.30;0.30;;;22.70;41.20;;;;;;5100898;28;20024;-75
2022/08/25 04:00:13;;;;;;;0.10;0.10;;;22.80;41.00;;;;;;5097776;28;21592;-76
2022/08/25 04:02:40;;;;;;;0.82;0.82;;;22.90;40.70;;;;;;5099588;28;20031;-76
2022/08/25 04:05:07;;;;;;;0.38;0.28;;;22.80;41.20;;;;;;5101205;28;20027;-76
2022/08/25 04:07:33;;;;;;;2.15;2.05;;;22.60;41.90;;;;;;5094401;28;20020;-76
2022/08/25 04:09:59;;;;;;;0.25;0.25;;;22.20;41.20;;;;;;5088708;28;20027;-75
2022/08/25 04:12:26;;;;;;;0.00;0.00;;;22.20;40.90;;;;;;5099049;28;20015;-76
2022/08/25 04:14:52;;;;;;;0.05;0.05;;;22.30;41.20;;;;;;5093706;28;20032;-77
2022/08/25 04:17:18;;;;;;;0.00;0.00;;;22.30;41.00;;;;;;5092741;28;20493;-77
2022/08/25 04:19:44;;;;;;;4.65;0.70;;;22.50;40.40;;;;;;5095204;28;20107;-75
2022/08/25 04:22:10;;;;;;;0.13;0.10;;;22.50;39.80;;;;;;5096239;28;20512;-75
2022/08/25 04:24:36;;;;;;;0.05;0.05;;;22.40;39.90;;;;;;5094143;28;20500;-77
2022/08/25 04:27:03;;;;;;;0.00;0.00;;;22.70;40.30;;;;;;5093136;28;20027;-76
2022/08/25 04:29:29;;;;;;;0.00;0.00;;;22.80;39.80;;;;;;5093840;28;20036;-76
2022/08/25 04:32:01;;;;;;;0.00;0.00;;;22.20;40.20;;;;;;5097738;28;20066;-76
2022/08/25 04:34:27;;;;;;;0.30;0.28;;;22.30;40.90;;;;;;5097195;28;20060;-76
2022/08/25 04:36:53;;;;;;;0.70;0.57;;;22.40;41.80;;;;;;5096807;28;20103;-76
2022/08/25 04:39:20;;;;;;;1.27;0.90;;;22.70;41.00;;;;;;5096991;28;20036;-76
2022/08/25 04:41:47;;;;;;;0.10;0.10;;;23.00;41.70;;;;;;5096591;28;20023;-76
2022/08/25 04:44:14;;;;;;;0.75;0.75;;;23.20;40.90;;;;;;5097350;27;20128;-76
2022/08/25 04:46:40;;;;;;;0.45;0.17;;;23.40;40.40;;;;;;5097930;27;20024;-74
2022/08/25 04:49:06;;;;;;;1.52;0.85;;;23.30;40.40;;;;;;5095408;28;20390;-76
2022/08/25 04:51:36;;;;;;;0.00;0.00;;;23.40;40.00;;;;;;5093387;28;20023;-76
2022/08/25 04:54:06;;;;;;;0.57;0.57;;;23.20;40.90;;;;;;5097516;28;20485;-76
2022/08/25 04:56:33;;;;;;;0.00;0.00;;;23.30;41.40;;;;;;5096958;28;20032;-76
2022/08/25 04:59:11;;;;;;;0.00;0.00;;;23.30;41.40;;;;;;5097497;28;20039;-76
2022/08/25 05:01:39;;;;;;;0.00;0.00;;;23.60;40.30;;;;;;5097831;28;20043;-75
2022/08/25 05:04:07;;;;;;;0.00;0.00;;;23.90;39.80;;;;;;5095923;28;20012;-76
2022/08/25 05:06:34;;;;;;;0.55;0.32;;;23.70;40.30;;;;;;5097319;28;20078;-76
2022/08/25 05:09:00;;;;;;;0.00;0.00;;;23.60;40.10;;;;;;5095279;28;20028;-76
2022/08/25 05:11:26;;;;;;;0.32;0.32;;;23.90;39.40;;;;;;5098216;28;20028;-75
2022/08/25 05:13:54;;;;;;;0.08;0.08;;;23.90;38.80;;;;;;5100933;28;20025;-76
2022/08/25 05:16:24;;;;;;;1.35;1.35;;;23.80;39.50;;;;;;5095489;28;20020;-75
2022/08/25 05:18:51;;;;;;;0.55;0.55;;;24.10;39.10;;;;;;5093964;28;20043;-76
2022/08/25 05:21:21;;;;;;;0.00;0.00;;;24.00;39.70;;;;;;5093611;28;20072;-75
2022/08/25 05:23:47;;;;;;;0.00;0.00;;;24.00;39.60;;;;;;5095764;28;20024;-76
2022/08/25 05:26:17;;;;;;;0.00;0.00;;;24.20;39.70;;;;;;5097076;28;20462;-76
2022/08/25 05:28:44;;;;;;;0.00;0.00;;;24.40;39.40;;;;;;5093374;28;20115;-77
2022/08/25 05:31:12;;;;;;;0.00;0.00;;;24.30;38.70;;;;;;5092648;28;20024;-73
2022/08/25 05:33:40;;;;;;;0.13;0.13;;;23.70;40.40;;;;;;5099406;27;20140;-75
2022/08/25 05:36:08;;;;;;;2.40;0.65;;;23.60;40.90;;;;;;5093292;28;20020;-75
2022/08/25 05:38:34;;;;;;;0.52;0.00;;;23.50;40.70;;;;;;5098722;28;20022;-74
2022/08/25 05:41:03;;;;;;;0.00;0.00;;;23.30;41.60;;;;;;5092784;28;20035;-75
2022/08/25 05:43:30;;;;;;;0.22;0.22;;;23.50;40.80;;;;;;5092672;28;20024;-76
2022/08/25 05:45:57;;;;;;;0.00;0.00;;;23.70;41.10;;;;;;5096169;28;20039;-75
2022/08/25 05:48:25;;;;;;;0.03;0.03;;;23.80;41.10;;;;;;5093533;28;20031;-73
2022/08/25 05:51:02;;;;;;;0.00;0.00;;;23.70;40.50;;;;;;5095539;28;20079;-76
2022/08/25 05:53:29;;;;;;;0.00;0.00;;;23.90;40.80;;;;;;5101044;28;20755;-76
2022/08/25 05:55:57;;;;;;;0.28;0.13;;;24.00;40.30;;;;;;5095563;28;20034;-77
2022/08/25 05:58:26;;;;;;;0.00;0.00;;;24.20;39.90;;;;;;5096304;28;20532;-75
2022/08/25 06:00:53;;;;;;;0.00;0.00;;;24.20;40.50;;;;;;5099278;28;20104;-74
2022/08/25 06:03:19;;;;;;;0.20;0.20;;;23.70;40.50;;;;;;5093659;28;20036;-75
2022/08/25 06:05:46;;;;;;;0.00;0.00;;;23.80;40.90;;;;;;5094933;28;20024;-75
2022/08/25 06:08:12;;;;;;;0.00;0.00;;;24.00;41.20;;;;;;5097794;28;20024;-75
2022/08/25 06:10:39;;;;;;;0.00;0.00;;;24.20;39.90;;;;;;5100969;28;20492;-75
2022/08/25 06:13:05;;;;;;;0.10;0.10;;;24.20;39.40;;;;;;5098701;28;20038;-74
2022/08/25 06:15:32;;;;;;;1.45;0.13;;;24.10;39.60;;;;;;5093015;28;20028;-75
2022/08/25 06:18:00;;;;;;;0.00;0.00;;;23.80;40.40;;;;;;5091465;28;20028;-75
2022/08/25 06:20:29;;;;;;;0.00;0.00;;;23.90;40.60;;;;;;5092580;28;20529;-75
2022/08/25 06:23:01;;;;;;;0.30;0.30;;;24.10;40.00;;;;;;5090170;28;20032;-76
2022/08/25 06:25:31;;;;;;;0.00;0.00;;;24.10;39.80;;;;;;5096390;28;20019;-76
2022/08/25 06:27:57;;;;;;;0.00;0.00;;;24.00;41.40;;;;;;5092784;28;20415;-76
2022/08/25 06:30:24;;;;;;;0.30;0.30;;;24.30;40.40;;;;;;5093867;28;20032;-75
2022/08/25 06:32:50;;;;;;;0.00;0.00;;;24.40;39.50;;;;;;5093882;28;20111;-75
2022/08/25 06:35:18;;;;;;;0.00;0.00;;;24.30;39.10;;;;;;5091126;28;20012;-76
2022/08/25 06:37:46;;;;;;;0.65;0.30;;;24.30;38.70;;;;;;5095093;28;20020;-76
2022/08/25 06:40:15;;;;;;;0.00;0.00;;;24.40;39.40;;;;;;5087649;28;20372;-76
2022/08/25 06:42:41;;;;;;;0.00;0.00;;;24.40;39.40;;;;;;5094761;28;20579;-76
2022/08/25 06:45:08;;;;;;;0.20;0.20;;;24.50;39.00;;;;;;5093194;28;20439;-75
2022/08/25 06:47:34;;;;;;;0.00;0.00;;;24.60;39.30;;;;;;5097051;28;20054;-75
2022/08/25 06:50:02;;;;;;;0.00;0.00;;;24.80;38.90;;;;;;5093452;28;20059;-76
2022/08/25 06:52:30;;;;;;;0.00;0.00;;;24.90;39.20;;;;;;5098127;28;20030;-76
2022/08/25 06:54:56;;;;;;;0.45;0.45;;;25.10;38.60;;;;;;5094685;28;20028;-76
2022/08/25 06:57:22;;;;;;;0.00;0.00;;;25.10;38.00;;;;;;5092560;28;20508;-75
2022/08/25 06:59:48;;;;;;;3.20;0.75;;;25.20;39.40;;;;;;5089894;28;20432;-76
2022/08/25 07:02:15;;;;;;;0.47;0.10;;;25.20;38.70;;;;;;5097056;28;20409;-76
2022/08/25 07:04:46;;;;;;;0.80;0.38;;;25.30;38.80;;;;;;5096777;28;20731;-76
2022/08/25 07:07:12;;;;;;;0.00;0.00;;;25.20;39.70;;;;;;5087551;28;20036;-76
2022/08/25 07:09:39;;;;;;;0.00;0.00;;;25.20;39.70;;;;;;5091926;28;20036;-76
2022/08/25 07:12:23;;;;;;;0.00;0.00;;;25.10;39.30;;;;;;5092319;28;20027;-76
2022/08/25 07:15:01;;;;;;;0.00;0.00;;;25.10;38.30;;;;;;5090729;28;20051;-75
2022/08/25 07:17:28;;;;;;;0.00;0.00;;;25.10;38.50;;;;;;5097109;28;20379;-75
2022/08/25 07:19:54;;;;;;;1.23;1.02;;;25.20;38.70;;;;;;5097497;28;20032;-76
2022/08/25 07:22:20;;;;;;;0.10;0.10;;;25.50;38.80;;;;;;5098501;28;20489;-75
2022/08/25 07:24:46;;;;;;;0.00;0.00;;;25.00;38.70;;;;;;5097226;28;20126;-74
2022/08/25 07:27:12;;;;;;;0.43;0.30;;;24.90;39.00;;;;;;5095408;28;20055;-75
2022/08/25 07:29:38;;;;;;;0.00;0.00;;;25.20;38.70;;;;;;5098860;28;20023;-76
2022/08/25 07:32:05;;;;;;;0.00;0.00;;;25.30;38.50;;;;;;5091594;28;20396;-75
2022/08/25 07:37:18;;;;;;;1.25;0.80;;;25.60;38.30;;;;;;5097305;28;20110;-76
2022/08/25 07:39:45;;;;;;;0.10;0.10;;;25.60;38.80;;;;;;5097632;28;20390;-75
2022/08/25 07:42:12;;;;;;;1.67;1.45;;;25.90;38.20;;;;;;5096545;28;20622;-76
2022/08/25 07:44:39;;;;;;;0.13;0.10;;;26.00;38.00;;;;;;5101135;28;20032;-75
2022/08/25 07:47:08;;;;;;;0.20;0.08;;;26.20;37.40;;;;;;5097847;28;20027;-76
2022/08/25 07:49:34;;;;;;;0.00;0.00;;;26.20;37.00;;;;;;5102154;28;20023;-75
2022/08/25 07:52:00;;;;;;;1.50;1.02;;;26.60;37.20;;;;;;5095460;28;20563;-75
2022/08/25 07:54:27;;;;;;;0.30;0.28;;;26.50;37.10;;;;;;5096399;28;20023;-76
2022/08/25 07:56:53;;;;;;;0.32;0.15;;;25.90;36.70;;;;;;5099033;28;20027;-76
2022/08/25 07:59:19;;;;;;;0.00;0.00;;;25.90;37.20;;;;;;5098123;28;20044;-77
2022/08/25 08:01:45;;;;;;;0.95;0.40;;;26.10;37.00;;;;;;5095230;28;20028;-76
2022/08/25 08:04:11;;;;;;;0.47;0.47;;;26.00;37.10;;;;;;5098992;28;20057;-74
2022/08/25 08:06:41;;;;;;;0.05;0.05;;;25.50;37.70;;;;;;5099082;28;20063;-77
2022/08/25 08:09:08;;;;;;;0.45;0.15;;;25.70;38.60;;;;;;5094903;28;20055;-76
2022/08/25 08:11:39;;;;;;;0.38;0.10;;;26.10;38.90;;;;;;5090601;28;20032;-76
2022/08/25 08:14:07;;;;;;;0.00;0.00;;;26.30;37.90;;;;;;5096270;28;20027;-75
2022/08/25 08:16:33;;;;;;;0.00;0.00;;;26.10;37.90;;;;;;5099631;28;20046;-75
2022/08/25 08:19:01;;;;;;;1.65;0.22;;;26.50;36.60;;;;;;5098973;28;20071;-76
2022/08/25 08:21:33;;;;;;;0.10;0.10;;;26.30;36.30;;;;;;5096126;28;20038;-75
2022/08/25 08:24:00;;;;;;;0.00;0.00;;;26.10;36.90;;;;;;5102279;28;20019;-76
2022/08/25 08:26:27;;;;;;;0.28;0.28;;;26.20;36.60;;;;;;5094281;28;20024;-76
2022/08/25 08:28:54;;;;;;;0.00;0.00;;;26.20;37.70;;;;;;5098810;28;20027;-75
2022/08/25 08:31:22;;;;;;;0.00;0.00;;;26.30;37.80;;;;;;5093329;28;20095;-75
2022/08/25 08:33:50;;;;;;;2.17;0.63;;;26.50;38.10;;;;;;5096470;28;20369;-77
2022/08/25 08:36:17;;;;;;;0.00;0.00;;;26.70;36.20;;;;;;5092967;28;20390;-75
2022/08/25 08:38:44;;;;;;;0.00;0.00;;;26.60;36.10;;;;;;5095835;28;20020;-76
2022/08/25 08:44:45;;;;;;;0.00;0.00;;;27.50;36.00;;;;;;5094877;28;20038;-76
2022/08/25 08:47:17;;;;;;;0.00;0.00;;;27.30;35.70;;;;;;5091218;28;20032;-77
2022/08/25 08:50:09;;;;;;;0.00;0.00;;;27.30;35.70;;;;;;5092761;27;20342;-75
2022/08/25 08:52:46;;;;;;;1.38;0.25;;;27.50;35.80;;;;;;5092502;28;20051;-75
2022/08/25 08:55:30;;;;;;;0.00;0.00;;;26.90;37.40;;;;;;5093549;28;20069;-76
2022/08/25 08:58:01;;;;;;;0.00;0.00;;;27.10;36.60;;;;;;5095791;27;20024;-76
2022/08/25 09:00:29;;;;;;;0.75;0.75;;;27.30;36.40;;;;;;5094807;28;20041;-76
2022/08/25 09:03:06;;;;;;;0.20;0.13;;;27.60;36.20;;;;;;5090785;28;20044;-76
2022/08/25 09:05:44;;;;;;;0.00;0.00;;;27.60;36.00;;;;;;5087966;28;20023;-75
2022/08/25 09:08:14;;;;;;;0.00;0.00;;;27.50;36.20;;;;;;5095842;28;20506;-75
2022/08/25 09:10:43;;;;;;;0.00;0.00;;;27.60;35.90;;;;;;5096844;28;20088;-74
2022/08/25 09:13:33;;;;;;;0.00;0.00;;;27.50;35.50;;;;;;5099447;28;20069;-74
2022/08/25 09:19:17;;;;;;;0.00;0.00;;;27.70;35.30;;;;;;5096554;28;20072;-75
2022/08/25 09:22:16;;;;;;;2.65;1.75;;;27.60;35.30;;;;;;5096526;28;20497;-73
2022/08/25 09:25:01;;;;;;;0.00;0.00;;;27.00;35.90;;;;;;5083376;28;20048;-74
2022/08/25 09:27:51;;;;;;;0.00;0.00;;;27.00;36.90;;;;;;5100093;28;20023;-74
2022/08/25 09:30:19;;;;;;;0.73;0.28;;;27.20;37.00;;;;;;5096277;28;20742;-74
2022/08/25 09:33:04;;;;;;;0.70;0.40;;;27.30;35.90;;;;;;5098827;28;20019;-73
2022/08/25 09:35:35;;;;;;;0.30;0.25;;;27.10;36.20;;;;;;5095898;28;20397;-75
2022/08/25 09:38:08;;;;;;;0.10;0.10;;;26.80;36.00;;;;;;5098875;28;20374;-75
2022/08/25 09:40:47;;;;;;;2.85;2.65;;;26.70;36.10;;;;;;5096389;28;20122;-74
2022/08/25 09:43:31;;;;;;;1.10;0.60;;;26.70;36.40;;;;;;5093179;28;20019;-74
2022/08/25 09:46:06;;;;;;;0.00;0.00;;;26.80;36.40;;;;;;5095219;28;20063;-74
2022/08/25 09:48:41;;;;;;;1.13;0.35;;;27.30;35.50;;;;;;5093934;28;20083;-74
2022/08/25 09:51:16;;;;;;;0.10;0.00;;;27.70;35.60;;;;;;5096347;28;20073;-74
2022/08/25 09:54:04;;;;;;;0.00;0.00;;;27.00;34.80;;;;;;5098134;28;20020;-75
2022/08/25 09:56:46;;;;;;;9.55;9.02;;;27.40;35.20;;;;;;5098718;28;20024;-76
2022/08/25 09:59:27;;;;;;;0.43;0.20;;;27.30;34.80;;;;;;5096265;28;20039;-75
2022/08/25 10:01:57;;;;;;;0.10;0.10;;;27.40;34.20;;;;;;5093326;28;20029;-75
2022/08/25 10:04:32;;;;;;;0.00;0.00;;;27.00;35.20;;;;;;5095999;28;20028;-73
2022/08/25 10:07:01;;;;;;;0.00;0.00;;;27.50;35.50;;;;;;5099923;28;20019;-75
2022/08/25 10:09:42;;;;;;;0.45;0.45;;;27.90;34.70;;;;;;5092428;28;20032;-74
2022/08/25 10:12:27;;;;;;;0.00;0.00;;;28.20;34.60;;;;;;5094560;28;20508;-74
2022/08/25 10:14:54;;;;;;;0.00;0.00;;;28.30;33.80;;;;;;5103645;28;20035;-74
2022/08/25 10:17:28;;;;;;;0.00;0.00;;;28.10;34.10;;;;;;5096724;28;20095;-74
2022/08/25 10:20:15;;;;;;;0.00;0.00;;;28.20;34.10;;;;;;5098601;28;20073;-73
2022/08/25 10:22:43;;;;;;;1.55;1.45;;;28.30;33.80;;;;;;5094408;28;20028;-74
2022/08/25 10:25:13;;;;;;;0.10;0.10;;;28.10;34.30;;;;;;5096297;28;20347;-74
2022/08/25 10:27:57;;;;;;;15.30;13.95;;;27.40;35.60;;;;;;5098731;28;20023;-74
2022/08/25 10:30:58;;;;;;;0.40;0.40;;;27.70;35.40;;;;;;5092080;28;21322;-75
2022/08/25 10:33:44;;;;;;;0.00;0.00;;;27.90;35.40;;;;;;5091838;28;20023;-74
2022/08/25 10:36:10;;;;;;;0.00;0.00;;;27.40;36.70;;;;;;5104366;28;20031;-74
2022/08/25 10:38:51;;;;;;;0.00;0.00;;;27.40;35.90;;;;;;5098555;28;20389;-74
2022/08/25 10:41:23;;;;;;;0.43;0.43;;;27.40;36.50;;;;;;5093244;28;20020;-74
2022/08/25 10:47:30;;;;;;;0.00;0.00;;;27.70;36.00;;;;;;5094388;28;20073;-75
2022/08/25 10:50:08;;;;;;;0.05;0.05;;;28.10;35.20;;;;;;5101210;28;20077;-74
2022/08/25 10:53:06;;;;;;;0.00;0.00;;;28.30;34.70;;;;;;5096127;28;20020;-76
2022/08/25 10:56:00;;;;;;;0.00;0.00;;;28.40;34.50;;;;;;5102033;28;20058;-74
2022/08/25 10:58:50;;;;;;;0.08;0.08;;;28.20;34.90;;;;;;5098994;28;20027;-74
2022/08/25 11:01:54;;;;;;;0.00;0.00;;;28.40;33.90;;;;;;5103346;27;20473;-76
2022/08/25 11:04:47;;;;;;;0.00;0.00;;;28.40;32.80;;;;;;5098051;28;20085;-74
2022/08/25 11:07:38;;;;;;;0.00;0.00;;;28.40;33.50;;;;;;5094248;27;20424;-76
2022/08/25 11:10:11;;;;;;;0.20;0.20;;;28.40;33.60;;;;;;5096692;27;20074;-73
2022/08/25 11:12:51;;;;;;;0.00;0.00;;;28.50;32.90;;;;;;5096688;28;20062;-73
2022/08/25 11:15:30;;;;;;;0.00;0.00;;;28.30;33.30;;;;;;5095527;28;20146;-75
2022/08/25 11:18:10;;;;;;;0.00;0.00;;;28.40;33.40;;;;;;5096787;28;20027;-74
2022/08/25 11:21:01;;;;;;;0.00;0.00;;;28.30;33.50;;;;;;5093545;28;20028;-74
2022/08/25 11:24:08;;;;;;;0.00;0.00;;;28.40;34.30;;;;;;5098076;28;20032;-74
2022/08/25 11:26:36;;;;;;;0.00;0.00;;;28.10;33.60;;;;;;5103997;28;20036;-74
2022/08/25 11:29:12;;;;;;;0.00;0.00;;;28.20;33.40;;;;;;5093426;28;20034;-73
2022/08/25 11:31:43;;;;;;;0.00;0.00;;;28.20;33.50;;;;;;5099851;27;20055;-74
2022/08/25 11:34:14;;;;;;;0.00;0.00;;;28.40;32.70;;;;;;5096145;28;20027;-72
2022/08/25 11:36:51;;;;;;;0.00;0.00;;;28.10;33.20;;;;;;5095620;28;20430;-73
2022/08/25 11:39:40;;;;;;;0.00;0.00;;;28.10;33.40;;;;;;5099909;28;20028;-73
2022/08/25 11:42:44;;;;;;;0.00;0.00;;;28.10;32.20;;;;;;5086137;28;21392;-74
2022/08/25 11:45:41;;;;;;;0.00;0.00;;;28.20;32.30;;;;;;5096866;28;20019;-75
2022/08/25 11:48:34;;;;;;;0.13;0.10;;;28.20;31.90;;;;;;5093310;28;20024;-74
2022/08/25 11:51:11;;;;;;;0.00;0.00;;;28.20;32.00;;;;;;5094567;28;20374;-75
2022/08/25 11:53:40;;;;;;;0.00;0.00;;;28.00;32.20;;;;;;5098556;28;20122;-75
2022/08/25 11:56:31;;;;;;;1.70;0.65;;;28.00;31.80;;;;;;5098922;28;20055;-73
2022/08/25 11:58:57;;;;;;;0.00;0.00;;;28.00;32.30;;;;;;5100628;28;20551;-75
2022/08/25 12:01:44;;;;;;;0.00;0.00;;;27.80;31.90;;;;;;5101746;28;20374;-73
2022/08/25 12:04:40;;;;;;;0.00;0.00;;;27.80;31.90;;;;;;5095314;28;20057;-73
2022/08/25 12:07:09;;;;;;;0.10;0.10;;;27.80;32.10;;;;;;5096888;28;20032;-73
2022/08/25 12:09:50;;;;;;;0.10;0.10;;;27.80;32.40;;;;;;5103780;28;20032;-74
2022/08/25 12:12:40;;;;;;;0.00;0.00;;;27.70;32.20;;;;;;5098541;28;20028;-74
2022/08/25 12:15:28;;;;;;;0.00;0.00;;;27.50;32.40;;;;;;5104464;28;20108;-73
2022/08/25 12:18:21;;;;;;;0.52;0.52;;;27.40;32.20;;;;;;5102042;28;20024;-73
2022/08/25 12:20:55;;;;;;;0.00;0.00;;;27.40;32.20;;;;;;5097468;28;20034;-75
2022/08/25 12:23:28;;;;;;;0.00;0.00;;;27.30;32.40;;;;;;5095392;28;20495;-72
2022/08/25 12:26:00;;;;;;;1.45;1.45;;;27.40;32.60;;;;;;5097104;28;20035;-73
2022/08/25 12:29:03;;;;;;;0.00;0.00;;;27.40;32.20;;;;;;5095236;28;20023;-75
2022/08/25 12:32:02;;;;;;;0.00;0.00;;;27.20;32.40;;;;;;5103313;28;20032;-74
2022/08/25 12:35:06;;;;;;;0.00;0.00;;;27.10;32.50;;;;;;5095936;28;20027;-74
2022/08/25 12:37:32;;;;;;;0.00;0.00;;;27.00;32.80;;;;;;5103206;28;20035;-75
2022/08/25 12:40:02;;;;;;;0.22;0.22;;;27.00;32.90;;;;;;5099644;28;20027;-74
2022/08/25 12:42:38;;;;;;;0.00;0.00;;;27.00;32.90;;;;;;5097604;28;20031;-74
2022/08/25 12:45:19;;;;;;;0.10;0.10;;;27.00;33.50;;;;;;5106195;28;20016;-73
2022/08/25 12:47:48;;;;;;;0.00;0.00;;;26.80;33.30;;;;;;5097462;28;20147;-73
2022/08/25 12:50:40;;;;;;;0.00;0.00;;;26.80;33.30;;;;;;5097228;28;20027;-73
2022/08/25 12:53:40;;;;;;;0.00;0.00;;;26.70;33.60;;;;;;5100357;28;20024;-75
2022/08/25 12:56:55;;;;;;;3.53;1.05;;;26.60;33.40;;;;;;5080452;28;20035;-73
2022/08/25 12:59:35;;;;;;;0.00;0.00;;;26.70;33.70;;;;;;5063499;28;20387;-73
2022/08/25 13:02:38;;;;;;;0.00;0.00;;;26.60;33.80;;;;;;5096688;28;20046;-73
2022/08/25 13:05:32;;;;;;;0.00;0.00;;;26.50;33.90;;;;;;5101052;28;20027;-74
2022/08/25 13:08:10;;;;;;;0.85;0.85;;;26.40;34.20;;;;;;5105031;28;20047;-73
2022/08/25 13:10:45;;;;;;;0.00;0.00;;;26.30;34.40;;;;;;5095117;28;21066;-74
2022/08/25 13:13:16;;;;;;;0.00;0.00;;;26.40;34.70;;;;;;5101808;28;20366;-73
2022/08/25 13:15:47;;;;;;;0.00;0.00;;;26.40;34.60;;;;;;5094649;28;20063;-74
2022/08/25 13:18:26;;;;;;;0.00;0.00;;;26.40;34.40;;;;;;5100773;28;20043;-72
2022/08/25 13:21:07;;;;;;;0.00;0.00;;;26.50;34.70;;;;;;5093765;28;20040;-74
2022/08/25 13:23:39;;;;;;;0.00;0.00;;;26.30;34.40;;;;;;5097375;28;20031;-73
2022/08/25 13:26:06;;;;;;;0.00;0.00;;;26.30;34.50;;;;;;5096860;28;20114;-74
2022/08/25 13:28:38;;;;;;;0.75;0.10;;;26.20;35.00;;;;;;5097476;28;20210;-73